Time;durP1;ratioP1;P1;durP2;ratioP2;P2;SDS_P1;SDS_P2;PMS_P1;PMS_P2;Temp;Humidity;BMP_temperature;BMP_pressure;BME280_temperature;BME280_humidity;BME280_pressure;Samples;Min_cycle;Max_cycle;Signal;HPM_P1;HPM_P2
2023/02/26 00:01:21;;;;;;;3.92;0.93;;;-1.40;99.90;;;;;;5036644;28;20098;-58
2023/02/26 00:03:56;;;;;;;2.65;1.38;;;-1.40;99.90;;;;;;5037021;28;20017;-57
2023/02/26 00:06:23;;;;;;;1.58;1.30;;;-1.50;99.90;;;;;;5038446;28;20044;-57
2023/02/26 00:08:49;;;;;;;1.88;1.17;;;-1.50;99.90;;;;;;5038382;28;20033;-57
2023/02/26 00:11:15;;;;;;;1.83;1.17;;;-1.50;99.90;;;;;;5038865;28;20051;-58
2023/02/26 00:13:42;;;;;;;1.20;1.00;;;-1.50;99.90;;;;;;5038011;28;20033;-57
2023/02/26 00:16:26;;;;;;;2.15;1.30;;;-1.50;99.90;;;;;;5038092;28;20113;-57
2023/02/26 00:18:52;;;;;;;3.15;0.98;;;-1.50;99.90;;;;;;5037341;28;20032;-58
2023/02/26 00:21:20;;;;;;;4.68;1.08;;;-1.50;99.90;;;;;;5037605;28;20017;-55
2023/02/26 00:23:46;;;;;;;1.55;0.90;;;-1.50;99.90;;;;;;5036394;28;20022;-58
2023/02/26 00:26:11;;;;;;;3.83;0.80;;;-1.50;99.90;;;;;;5035855;28;20051;-57
2023/02/26 00:28:38;;;;;;;5.28;0.98;;;-1.50;99.90;;;;;;5037429;28;20067;-58
2023/02/26 00:31:04;;;;;;;3.58;1.38;;;-1.50;99.90;;;;;;5037130;28;20529;-57
2023/02/26 00:33:30;;;;;;;4.53;1.15;;;-1.50;99.90;;;;;;5037590;28;20084;-57
2023/02/26 00:36:18;;;;;;;3.92;1.25;;;-1.50;99.90;;;;;;5036968;28;20460;-57
2023/02/26 00:38:52;;;;;;;3.95;0.85;;;-1.50;99.90;;;;;;5006418;28;20406;-56
2023/02/26 00:41:18;;;;;;;1.98;1.08;;;-1.50;99.90;;;;;;5037234;28;20578;-58
2023/02/26 00:43:44;;;;;;;3.55;1.30;;;-1.60;99.90;;;;;;5036391;28;20317;-57
2023/02/26 00:46:44;;;;;;;3.33;1.08;;;-1.60;99.90;;;;;;5038198;28;20025;-55
2023/02/26 00:49:39;;;;;;;1.50;0.90;;;-1.60;99.90;;;;;;5037160;28;20417;-58
2023/02/26 00:52:13;;;;;;;2.95;1.17;;;-1.60;99.90;;;;;;5038398;28;20053;-53
2023/02/26 00:54:39;;;;;;;1.98;0.90;;;-1.60;99.90;;;;;;5037676;28;20052;-54
2023/02/26 00:57:05;;;;;;;2.38;0.95;;;-1.50;99.90;;;;;;5038994;28;20042;-58
2023/02/26 00:59:31;;;;;;;3.67;1.02;;;-1.50;99.90;;;;;;5043019;28;20107;-57
2023/02/26 01:01:57;;;;;;;1.63;0.93;;;-1.50;99.90;;;;;;5040752;28;20147;-56
2023/02/26 01:04:23;;;;;;;2.38;0.98;;;-1.50;99.90;;;;;;5041389;28;20025;-55
2023/02/26 01:06:54;;;;;;;2.55;0.85;;;-1.60;99.90;;;;;;5041649;28;20590;-57
2023/02/26 01:09:29;;;;;;;5.20;1.15;;;-1.50;99.90;;;;;;5040319;28;20075;-56
2023/02/26 01:11:57;;;;;;;2.55;1.40;;;-1.50;99.90;;;;;;5041347;28;20022;-55
2023/02/26 01:14:24;;;;;;;1.80;0.88;;;-1.40;99.90;;;;;;5041292;28;20521;-54
2023/02/26 01:16:54;;;;;;;2.97;1.08;;;-1.40;99.90;;;;;;5041720;28;20150;-54
2023/02/26 01:19:41;;;;;;;1.63;1.05;;;-1.40;99.90;;;;;;5039455;28;20030;-57
2023/02/26 01:22:21;;;;;;;1.75;0.70;;;-1.40;99.90;;;;;;5041242;28;20029;-55
2023/02/26 01:24:51;;;;;;;3.22;1.00;;;-1.40;99.90;;;;;;5041581;28;20120;-57
2023/02/26 01:27:16;;;;;;;4.22;0.88;;;-1.50;99.90;;;;;;5039412;28;20531;-57
2023/02/26 01:29:42;;;;;;;2.92;0.93;;;-1.50;99.90;;;;;;5041351;28;20051;-52
2023/02/26 01:32:18;;;;;;;2.08;0.90;;;-1.50;99.90;;;;;;5039717;28;20522;-56
2023/02/26 01:35:21;;;;;;;4.68;1.10;;;-1.40;99.90;;;;;;5040379;28;20025;-56
2023/02/26 01:37:59;;;;;;;1.95;0.65;;;-1.40;99.90;;;;;;5041680;28;20052;-57
2023/02/26 01:40:44;;;;;;;2.13;1.10;;;-1.40;99.90;;;;;;5040091;28;20025;-53
2023/02/26 01:43:15;;;;;;;1.17;0.68;;;-1.40;99.90;;;;;;5040644;28;20089;-56
2023/02/26 01:46:00;;;;;;;3.10;1.15;;;-1.50;99.90;;;;;;5036855;28;20121;-54
2023/02/26 01:48:42;;;;;;;4.18;1.05;;;-1.50;99.90;;;;;;5035755;28;20253;-53
2023/02/26 01:51:08;;;;;;;2.00;1.02;;;-1.50;99.90;;;;;;5039730;28;20403;-54
2023/02/26 01:53:34;;;;;;;4.53;1.08;;;-1.60;99.90;;;;;;5041808;28;20080;-57
2023/02/26 01:56:03;;;;;;;4.70;1.02;;;-1.60;99.90;;;;;;5041105;28;20071;-55
2023/02/26 01:58:35;;;;;;;1.70;0.93;;;-1.70;99.90;;;;;;5038945;28;20043;-55
2023/02/26 02:01:01;;;;;;;3.28;1.38;;;-1.70;99.90;;;;;;5038287;28;20565;-55
2023/02/26 02:03:30;;;;;;;2.60;1.33;;;-1.70;99.90;;;;;;5038733;28;20036;-54
2023/02/26 02:06:02;;;;;;;1.83;1.13;;;-1.80;99.90;;;;;;5040516;28;20018;-56
2023/02/26 02:08:29;;;;;;;1.50;1.13;;;-1.80;99.90;;;;;;5040156;28;20029;-56
2023/02/26 02:10:55;;;;;;;1.63;1.00;;;-1.80;99.90;;;;;;5041143;28;20116;-54
2023/02/26 02:13:59;;;;;;;2.80;1.33;;;-1.90;99.90;;;;;;5040666;28;20519;-58
2023/02/26 02:16:46;;;;;;;1.17;0.82;;;-1.90;99.90;;;;;;4998191;28;20021;-58
2023/02/26 02:19:46;;;;;;;4.72;1.25;;;-1.90;99.90;;;;;;4998131;28;20040;-58
2023/02/26 02:22:44;;;;;;;2.70;1.15;;;-1.90;99.90;;;;;;4988930;28;20124;-56
2023/02/26 02:25:35;;;;;;;4.05;1.05;;;-2.00;99.90;;;;;;5039563;28;20029;-56
2023/02/26 02:28:28;;;;;;;1.92;0.85;;;-2.00;99.90;;;;;;5039386;28;20028;-58
2023/02/26 02:31:08;;;;;;;2.30;0.90;;;-2.00;99.90;;;;;;5038548;28;20098;-55
2023/02/26 02:33:53;;;;;;;1.35;0.90;;;-2.10;99.90;;;;;;5038270;28;20440;-57
2023/02/26 02:36:22;;;;;;;1.60;0.68;;;-2.10;99.90;;;;;;5039221;28;20526;-54
2023/02/26 02:38:54;;;;;;;3.45;1.27;;;-2.10;99.90;;;;;;5040367;28;20144;-55
2023/02/26 02:41:26;;;;;;;2.13;1.05;;;-2.10;99.90;;;;;;5038907;28;20028;-56
2023/02/26 02:43:52;;;;;;;2.05;0.80;;;-2.10;99.90;;;;;;5039786;28;20051;-56
2023/02/26 02:46:25;;;;;;;1.63;0.68;;;-2.20;99.90;;;;;;5040849;28;20017;-57
2023/02/26 02:49:00;;;;;;;2.45;0.77;;;-2.20;99.90;;;;;;5039065;28;20040;-55
2023/02/26 02:51:32;;;;;;;2.28;0.50;;;-2.20;99.90;;;;;;5038078;28;20395;-54
2023/02/26 02:54:10;;;;;;;2.63;0.70;;;-2.30;99.90;;;;;;5039136;28;20028;-56
2023/02/26 02:56:49;;;;;;;1.95;0.85;;;-2.30;99.90;;;;;;5038540;28;20029;-55
2023/02/26 02:59:29;;;;;;;1.83;0.70;;;-2.40;99.90;;;;;;5039777;28;20115;-56
2023/02/26 03:02:06;;;;;;;0.43;0.43;;;-2.40;99.90;;;;;;5039361;28;20484;-57
2023/02/26 03:04:32;;;;;;;2.42;0.73;;;-2.40;99.90;;;;;;5039134;28;20025;-57
2023/02/26 03:06:58;;;;;;;3.67;0.80;;;-2.50;99.90;;;;;;5039398;28;20032;-53
2023/02/26 03:09:24;;;;;;;4.72;1.05;;;-2.50;99.90;;;;;;5039737;28;20033;-55
2023/02/26 03:11:49;;;;;;;1.35;0.77;;;-2.50;99.90;;;;;;5039412;28;20032;-55
2023/02/26 03:14:15;;;;;;;3.28;1.08;;;-2.50;99.90;;;;;;5038131;28;20040;-56
2023/02/26 03:17:31;;;;;;;1.50;0.75;;;-2.60;99.90;;;;;;5039773;28;20048;-57
2023/02/26 03:20:23;;;;;;;1.98;0.60;;;-2.60;99.90;;;;;;5005531;28;20112;-55
2023/02/26 03:23:24;;;;;;;2.38;1.25;;;-2.60;99.90;;;;;;5038654;28;20076;-55
2023/02/26 03:25:57;;;;;;;1.75;0.93;;;-2.60;99.90;;;;;;5024963;28;20063;-56
2023/02/26 03:28:33;;;;;;;1.10;0.68;;;-2.70;99.90;;;;;;5038917;28;20028;-57
2023/02/26 03:31:15;;;;;;;3.47;1.00;;;-2.70;99.90;;;;;;5038423;28;20488;-56
2023/02/26 03:34:13;;;;;;;1.33;0.77;;;-2.70;99.90;;;;;;5038148;28;20049;-53
2023/02/26 03:36:55;;;;;;;0.88;0.70;;;-2.70;99.90;;;;;;5024024;28;20111;-57
2023/02/26 03:39:33;;;;;;;1.13;0.90;;;-2.80;99.90;;;;;;5037407;28;20522;-54
2023/02/26 03:42:27;;;;;;;3.60;0.88;;;-2.80;99.90;;;;;;5038799;28;20131;-54
2023/02/26 03:44:59;;;;;;;4.15;0.70;;;-2.80;99.90;;;;;;5038824;28;20060;-51
2023/02/26 03:47:27;;;;;;;1.73;0.75;;;-2.90;99.90;;;;;;5038533;28;20563;-55
2023/02/26 03:50:01;;;;;;;1.17;0.68;;;-2.90;99.90;;;;;;5036118;28;20026;-53
2023/02/26 03:52:31;;;;;;;1.42;0.50;;;-2.90;99.90;;;;;;5036151;28;20033;-56
2023/02/26 03:55:16;;;;;;;2.00;0.63;;;-2.90;99.90;;;;;;5038277;28;20025;-53
2023/02/26 03:57:42;;;;;;;1.73;0.80;;;-3.00;99.90;;;;;;5038037;28;20036;-55
2023/02/26 04:00:09;;;;;;;1.17;0.65;;;-3.00;99.90;;;;;;5038496;28;20041;-55
2023/02/26 04:02:50;;;;;;;1.05;0.70;;;-3.00;99.90;;;;;;5038647;28;20030;-56
2023/02/26 04:05:20;;;;;;;0.70;0.57;;;-3.10;99.90;;;;;;5038637;28;20025;-54
2023/02/26 04:07:47;;;;;;;2.05;0.88;;;-3.10;99.90;;;;;;5038626;28;20048;-53
2023/02/26 04:10:20;;;;;;;0.82;0.52;;;-3.10;99.90;;;;;;5037859;28;20037;-55
2023/02/26 04:12:45;;;;;;;1.60;0.73;;;-3.20;99.90;;;;;;5038324;28;20026;-52
2023/02/26 04:15:11;;;;;;;3.40;0.68;;;-3.20;99.90;;;;;;5038592;28;20544;-57
2023/02/26 04:17:37;;;;;;;3.88;0.90;;;-3.30;99.90;;;;;;5037762;28;20051;-55
2023/02/26 04:20:06;;;;;;;2.85;0.75;;;-3.30;99.90;;;;;;5038241;28;20029;-55
2023/02/26 04:22:33;;;;;;;2.42;0.65;;;-3.30;99.90;;;;;;5037161;28;20025;-56
2023/02/26 04:24:58;;;;;;;3.90;0.75;;;-3.30;99.90;;;;;;5036679;28;20060;-57
2023/02/26 04:27:24;;;;;;;3.90;0.77;;;-3.40;99.90;;;;;;5036864;28;20045;-55
2023/02/26 04:29:49;;;;;;;1.55;0.73;;;-3.40;99.90;;;;;;5037282;28;20029;-53
2023/02/26 04:32:15;;;;;;;2.05;0.90;;;-3.40;99.90;;;;;;5038954;28;20029;-52
2023/02/26 04:34:40;;;;;;;1.77;0.45;;;-3.50;99.90;;;;;;5036439;28;20045;-57
2023/02/26 04:37:06;;;;;;;1.75;0.50;;;-3.50;99.90;;;;;;5038393;28;20044;-55
2023/02/26 04:39:31;;;;;;;1.92;0.60;;;-3.50;99.90;;;;;;5036151;28;20043;-57
2023/02/26 04:41:57;;;;;;;1.90;0.77;;;-3.50;99.90;;;;;;5038061;28;20032;-57
2023/02/26 04:44:23;;;;;;;1.05;0.57;;;-3.50;99.90;;;;;;5037617;28;20116;-58
2023/02/26 04:46:48;;;;;;;1.33;0.57;;;-3.60;99.90;;;;;;5037963;28;20101;-56
2023/02/26 04:49:14;;;;;;;2.20;0.52;;;-3.60;99.90;;;;;;5036865;28;20057;-57
2023/02/26 04:51:39;;;;;;;0.45;0.40;;;-3.60;99.90;;;;;;5038052;28;20475;-58
2023/02/26 04:54:05;;;;;;;2.30;0.57;;;-3.70;99.90;;;;;;5037304;28;20037;-55
2023/02/26 04:56:31;;;;;;;3.72;0.68;;;-3.70;99.90;;;;;;5037763;28;20491;-57
2023/02/26 04:58:57;;;;;;;1.10;0.50;;;-3.70;99.90;;;;;;5037438;28;20033;-57
2023/02/26 05:01:22;;;;;;;2.05;0.60;;;-3.70;99.90;;;;;;5033813;28;20438;-56
2023/02/26 05:03:48;;;;;;;2.78;1.08;;;-3.70;99.90;;;;;;5037057;28;20406;-53
2023/02/26 05:06:13;;;;;;;1.23;0.57;;;-3.70;99.90;;;;;;5037247;28;20057;-56
2023/02/26 05:08:41;;;;;;;1.23;0.85;;;-3.70;99.90;;;;;;5037015;28;20506;-51
2023/02/26 05:11:10;;;;;;;2.60;0.85;;;-3.70;99.90;;;;;;5036166;28;20033;-55
2023/02/26 05:13:36;;;;;;;2.13;0.77;;;-3.70;99.90;;;;;;5037337;28;20033;-55
2023/02/26 05:16:01;;;;;;;0.52;0.50;;;-3.80;99.90;;;;;;5037624;28;20120;-56
2023/02/26 05:18:27;;;;;;;0.98;0.60;;;-3.80;99.90;;;;;;5036537;28;20034;-52
2023/02/26 05:20:54;;;;;;;3.75;0.80;;;-3.80;99.90;;;;;;5037257;28;20025;-55
2023/02/26 05:23:20;;;;;;;2.75;0.57;;;-3.80;99.90;;;;;;5036663;28;20040;-57
2023/02/26 05:25:46;;;;;;;0.57;0.50;;;-3.80;99.90;;;;;;5037208;28;20025;-56
2023/02/26 05:28:12;;;;;;;1.60;0.65;;;-3.80;99.90;;;;;;5036850;28;20052;-51
2023/02/26 05:30:38;;;;;;;1.38;0.70;;;-3.80;99.90;;;;;;5036983;28;20033;-54
2023/02/26 05:33:04;;;;;;;2.10;0.60;;;-3.70;99.90;;;;;;5035992;28;20029;-56
2023/02/26 05:35:29;;;;;;;3.85;0.60;;;-3.70;99.90;;;;;;5037129;28;20021;-54
2023/02/26 05:37:55;;;;;;;0.68;0.55;;;-3.80;99.90;;;;;;5037664;28;20403;-57
2023/02/26 05:40:21;;;;;;;2.70;0.93;;;-3.80;99.90;;;;;;5037091;28;20082;-55
2023/02/26 05:42:46;;;;;;;2.47;0.52;;;-3.80;99.90;;;;;;5037879;28;20021;-56
2023/02/26 05:45:12;;;;;;;1.58;0.70;;;-3.90;99.90;;;;;;5041763;28;20525;-56
2023/02/26 05:47:37;;;;;;;0.88;0.70;;;-3.90;99.90;;;;;;5040749;28;20429;-55
2023/02/26 05:50:05;;;;;;;2.75;0.60;;;-3.90;99.90;;;;;;5041485;28;20072;-54
2023/02/26 05:52:30;;;;;;;1.88;0.75;;;-3.90;99.90;;;;;;5040445;28;20514;-54
2023/02/26 05:54:56;;;;;;;6.43;0.73;;;-3.90;99.90;;;;;;5041040;28;20057;-55
2023/02/26 05:57:22;;;;;;;3.20;1.02;;;-3.90;99.90;;;;;;5040681;28;20544;-55
2023/02/26 05:59:48;;;;;;;2.72;1.08;;;-3.80;99.90;;;;;;5040132;28;20059;-56
2023/02/26 06:02:13;;;;;;;1.75;1.00;;;-3.90;99.90;;;;;;5040402;28;20037;-54
2023/02/26 06:04:39;;;;;;;1.67;0.68;;;-3.90;99.90;;;;;;5040638;28;20032;-55
2023/02/26 06:07:04;;;;;;;3.85;1.10;;;-3.90;99.90;;;;;;5039825;28;20064;-51
2023/02/26 06:09:30;;;;;;;1.00;0.70;;;-3.80;99.90;;;;;;5037838;28;20112;-52
2023/02/26 06:11:55;;;;;;;0.88;0.68;;;-3.80;99.90;;;;;;5036922;28;20036;-55
2023/02/26 06:14:21;;;;;;;1.90;0.70;;;-3.80;99.90;;;;;;5038545;28;20078;-56
2023/02/26 06:16:47;;;;;;;3.03;0.90;;;-3.80;99.90;;;;;;5039873;28;20029;-51
2023/02/26 06:19:12;;;;;;;2.58;0.98;;;-3.80;99.90;;;;;;5039577;28;20029;-56
2023/02/26 06:21:38;;;;;;;3.05;0.60;;;-3.90;99.90;;;;;;5042002;28;20104;-54
2023/02/26 06:24:04;;;;;;;3.83;0.70;;;-3.90;99.90;;;;;;5040977;28;20026;-53
2023/02/26 06:26:30;;;;;;;1.52;0.80;;;-3.80;99.90;;;;;;5040422;28;20025;-53
2023/02/26 06:28:56;;;;;;;0.60;0.60;;;-3.80;99.90;;;;;;5038006;28;20029;-55
2023/02/26 06:31:21;;;;;;;0.88;0.68;;;-3.90;99.90;;;;;;5038582;28;20120;-56
2023/02/26 06:33:47;;;;;;;1.35;0.80;;;-3.90;99.90;;;;;;5040271;28;20550;-57
2023/02/26 06:36:13;;;;;;;3.35;0.80;;;-3.80;99.90;;;;;;5039318;28;20124;-54
2023/02/26 06:38:38;;;;;;;0.68;0.65;;;-3.80;99.90;;;;;;5039943;28;20140;-53
2023/02/26 06:41:04;;;;;;;2.78;0.75;;;-3.70;99.90;;;;;;5039962;28;20105;-51
2023/02/26 06:43:30;;;;;;;1.63;0.80;;;-3.70;99.90;;;;;;5039546;28;20020;-53
2023/02/26 06:45:59;;;;;;;2.28;0.70;;;-3.60;99.90;;;;;;5039930;28;20529;-56
2023/02/26 06:48:25;;;;;;;3.40;0.98;;;-3.50;99.90;;;;;;5039168;28;20556;-55
2023/02/26 06:50:51;;;;;;;3.28;0.90;;;-3.40;99.90;;;;;;5038722;28;20033;-53
2023/02/26 06:53:16;;;;;;;0.95;0.82;;;-3.40;99.90;;;;;;5038422;28;20033;-55
2023/02/26 06:55:46;;;;;;;1.65;0.90;;;-3.30;99.90;;;;;;5038775;28;20024;-54
2023/02/26 06:58:12;;;;;;;1.60;0.80;;;-3.20;99.90;;;;;;5038265;28;20072;-55
2023/02/26 07:00:39;;;;;;;2.92;1.17;;;-3.10;99.90;;;;;;5037507;28;20021;-56
2023/02/26 07:03:05;;;;;;;4.10;1.08;;;-3.10;99.90;;;;;;5037444;28;20120;-55
2023/02/26 07:05:30;;;;;;;2.05;1.00;;;-3.00;99.90;;;;;;5038222;28;20155;-56
2023/02/26 07:07:56;;;;;;;1.90;1.00;;;-3.00;99.90;;;;;;5037812;28;20411;-55
2023/02/26 07:10:23;;;;;;;2.70;1.10;;;-3.00;99.90;;;;;;5034743;28;20047;-56
2023/02/26 07:12:49;;;;;;;2.63;1.13;;;-3.00;99.90;;;;;;5035692;28;20025;-57
2023/02/26 07:15:15;;;;;;;1.67;1.38;;;-2.90;99.90;;;;;;5036687;28;20296;-57
2023/02/26 07:17:41;;;;;;;2.83;1.00;;;-2.90;99.90;;;;;;5037611;28;20115;-56
2023/02/26 07:20:09;;;;;;;6.18;1.42;;;-2.90;99.90;;;;;;5037013;28;20060;-57
2023/02/26 07:22:36;;;;;;;4.00;1.08;;;-2.90;99.90;;;;;;5038081;28;20472;-52
2023/02/26 07:25:02;;;;;;;2.33;1.08;;;-2.90;99.90;;;;;;5038404;28;20034;-56
2023/02/26 07:27:28;;;;;;;5.57;1.77;;;-2.80;99.90;;;;;;5036509;28;20054;-57
2023/02/26 07:29:54;;;;;;;3.25;1.40;;;-2.80;99.90;;;;;;5038096;28;20116;-56
2023/02/26 07:32:20;;;;;;;3.10;0.90;;;-2.70;99.90;;;;;;5038598;28;20033;-56
2023/02/26 07:34:46;;;;;;;2.30;1.52;;;-2.70;99.90;;;;;;5038782;28;20124;-55
2023/02/26 07:37:11;;;;;;;1.50;1.20;;;-2.70;99.90;;;;;;5037869;28;20116;-54
2023/02/26 07:39:37;;;;;;;3.67;1.58;;;-2.60;99.90;;;;;;5036063;28;20482;-58
2023/02/26 07:42:03;;;;;;;2.65;1.17;;;-2.60;99.90;;;;;;5036765;28;20021;-54
2023/02/26 07:44:28;;;;;;;1.65;1.00;;;-2.50;99.90;;;;;;5036103;28;20471;-54
2023/02/26 07:46:54;;;;;;;2.70;1.38;;;-2.40;99.90;;;;;;5039184;28;20491;-57
2023/02/26 07:49:20;;;;;;;3.63;1.80;;;-2.30;99.90;;;;;;5038144;28;20427;-55
2023/02/26 07:51:47;;;;;;;3.42;1.50;;;-2.20;99.90;;;;;;5038136;28;20028;-55
2023/02/26 07:54:13;;;;;;;1.40;1.02;;;-2.20;99.90;;;;;;5038331;28;20029;-57
2023/02/26 07:56:40;;;;;;;2.63;1.75;;;-2.00;99.90;;;;;;5038802;28;20662;-53
2023/02/26 07:59:05;;;;;;;3.05;1.20;;;-1.90;99.90;;;;;;5037922;28;20130;-52
2023/02/26 08:01:31;;;;;;;4.82;1.30;;;-1.80;99.90;;;;;;5037404;28;20399;-55
2023/02/26 08:03:56;;;;;;;2.63;1.30;;;-1.80;99.90;;;;;;5039092;28;20072;-52
2023/02/26 08:06:22;;;;;;;3.17;1.30;;;-1.70;99.90;;;;;;5037985;28;20416;-56
2023/02/26 08:08:48;;;;;;;2.45;1.23;;;-1.70;99.90;;;;;;5038571;28;20430;-52
2023/02/26 08:11:13;;;;;;;2.67;1.35;;;-1.60;99.90;;;;;;5037192;28;20033;-56
2023/02/26 08:13:39;;;;;;;2.63;1.08;;;-1.50;99.90;;;;;;5038122;28;20083;-55
2023/02/26 08:16:05;;;;;;;2.58;0.95;;;-1.40;99.90;;;;;;5038717;28;20075;-54
2023/02/26 08:18:31;;;;;;;2.80;1.02;;;-1.30;99.90;;;;;;5038231;28;20708;-55
2023/02/26 08:20:56;;;;;;;3.88;1.70;;;-1.20;99.90;;;;;;5037257;28;20113;-55
2023/02/26 08:23:22;;;;;;;1.92;0.95;;;-1.10;99.90;;;;;;5038880;28;20498;-54
2023/02/26 08:25:49;;;;;;;2.42;1.38;;;-1.00;99.90;;;;;;5038413;28;20438;-53
2023/02/26 08:28:14;;;;;;;3.30;1.35;;;-1.00;99.90;;;;;;5038596;28;20072;-55
2023/02/26 08:30:40;;;;;;;6.10;1.50;;;-0.80;99.90;;;;;;5038244;28;20535;-56
2023/02/26 08:33:06;;;;;;;3.58;1.38;;;-0.70;99.90;;;;;;5036539;28;20033;-54
2023/02/26 08:35:31;;;;;;;2.08;1.23;;;-0.60;99.90;;;;;;5037267;28;20033;-56
2023/02/26 08:37:57;;;;;;;2.25;1.25;;;-0.40;99.90;;;;;;5038205;28;20040;-56
2023/02/26 08:40:22;;;;;;;4.57;1.23;;;-0.20;99.90;;;;;;5037884;28;20068;-56
2023/02/26 08:42:48;;;;;;;3.03;1.42;;;-0.10;99.90;;;;;;5036931;28;20194;-56
2023/02/26 08:45:14;;;;;;;4.95;1.70;;;0.00;99.90;;;;;;5036850;28;20029;-53
2023/02/26 08:47:44;;;;;;;3.55;1.30;;;0.20;99.90;;;;;;5037159;28;20029;-55
2023/02/26 08:50:10;;;;;;;1.23;1.13;;;0.30;99.90;;;;;;5032799;28;20029;-53
2023/02/26 08:52:37;;;;;;;1.30;0.95;;;0.40;99.90;;;;;;5037573;28;20036;-55
2023/02/26 08:55:03;;;;;;;2.70;1.45;;;0.60;99.90;;;;;;5038339;28;20029;-54
2023/02/26 08:57:29;;;;;;;5.15;1.08;;;0.70;99.90;;;;;;5038223;28;20368;-54
2023/02/26 08:59:54;;;;;;;2.88;1.27;;;0.80;99.90;;;;;;5038073;28;20036;-57
2023/02/26 09:02:20;;;;;;;1.50;1.17;;;0.90;99.90;;;;;;5037560;28;20472;-54
2023/02/26 09:04:46;;;;;;;2.95;1.08;;;1.00;99.90;;;;;;5037014;28;20040;-53
2023/02/26 09:07:11;;;;;;;2.30;0.88;;;1.10;99.90;;;;;;5038698;28;20029;-54
2023/02/26 09:09:37;;;;;;;1.50;1.00;;;1.30;99.90;;;;;;5036694;28;20491;-53
2023/02/26 09:12:03;;;;;;;1.05;0.80;;;1.40;99.90;;;;;;5038449;28;20025;-55
2023/02/26 09:14:28;;;;;;;2.33;0.80;;;1.50;99.90;;;;;;5037784;28;20687;-55
2023/02/26 09:16:54;;;;;;;2.47;1.40;;;1.60;99.90;;;;;;5039006;28;20396;-56
2023/02/26 09:19:20;;;;;;;3.55;0.93;;;1.60;99.90;;;;;;5041672;28;20027;-56
2023/02/26 09:21:46;;;;;;;1.05;0.70;;;1.70;99.90;;;;;;5039022;28;20060;-58
2023/02/26 09:24:11;;;;;;;2.60;0.60;;;1.70;99.90;;;;;;5040738;28;20045;-59
2023/02/26 09:26:37;;;;;;;1.88;0.63;;;1.70;99.90;;;;;;5041681;28;20034;-56
2023/02/26 09:29:03;;;;;;;1.42;0.40;;;1.80;99.90;;;;;;5042082;28;20079;-57
2023/02/26 09:31:29;;;;;;;0.93;0.50;;;1.80;99.90;;;;;;5038771;28;20402;-57
2023/02/26 09:33:54;;;;;;;1.15;0.40;;;1.90;99.90;;;;;;5038705;28;20056;-58
2023/02/26 09:36:20;;;;;;;0.85;0.50;;;2.00;99.90;;;;;;5040381;28;20490;-59
2023/02/26 09:38:46;;;;;;;1.33;0.68;;;2.10;99.90;;;;;;5038969;28;20048;-57
2023/02/26 09:41:25;;;;;;;2.00;0.40;;;2.10;99.90;;;;;;5039689;28;20083;-58
2023/02/26 09:44:14;;;;;;;1.33;0.80;;;2.10;99.90;;;;;;5039784;28;20029;-56
2023/02/26 09:47:01;;;;;;;1.83;0.70;;;2.20;99.90;;;;;;5039478;28;20021;-59
2023/02/26 09:50:08;;;;;;;0.80;0.65;;;2.30;99.90;;;;;;5041818;28;20426;-55
2023/02/26 09:52:45;;;;;;;1.45;0.80;;;2.30;99.90;;;;;;5026256;28;20059;-57
2023/02/26 09:55:21;;;;;;;3.28;0.90;;;2.50;99.90;;;;;;5040652;28;20037;-55
2023/02/26 09:57:50;;;;;;;1.38;0.82;;;2.50;99.90;;;;;;5040393;28;20116;-59
2023/02/26 10:00:55;;;;;;;2.50;0.77;;;2.60;99.90;;;;;;5038918;28;20507;-59
2023/02/26 10:03:33;;;;;;;2.58;1.10;;;2.60;99.90;;;;;;5007342;28;20107;-58
2023/02/26 10:06:20;;;;;;;3.03;0.88;;;2.70;99.90;;;;;;5036647;28;20048;-59
2023/02/26 10:08:57;;;;;;;1.80;0.95;;;2.80;99.90;;;;;;5041094;28;20492;-60
2023/02/26 10:11:49;;;;;;;1.83;0.80;;;2.70;99.90;;;;;;5038654;28;20029;-60
2023/02/26 10:14:29;;;;;;;4.05;1.13;;;2.60;99.90;;;;;;5040699;28;20032;-59
2023/02/26 10:17:02;;;;;;;2.50;1.10;;;2.50;99.90;;;;;;5040064;28;20033;-58
2023/02/26 10:19:36;;;;;;;4.13;1.00;;;2.40;99.90;;;;;;5038979;28;20029;-59
2023/02/26 10:22:23;;;;;;;1.20;0.75;;;2.40;99.90;;;;;;5040392;28;20029;-57
2023/02/26 10:24:56;;;;;;;2.75;1.02;;;2.40;99.90;;;;;;5039701;28;20029;-58
2023/02/26 10:27:47;;;;;;;1.55;0.60;;;2.40;99.90;;;;;;5040736;28;20025;-58
2023/02/26 10:30:19;;;;;;;1.30;0.88;;;2.50;99.90;;;;;;5038498;28;20033;-59
2023/02/26 10:33:11;;;;;;;0.82;0.68;;;2.50;99.90;;;;;;5038118;28;20041;-60
2023/02/26 10:35:46;;;;;;;2.45;0.70;;;2.60;99.90;;;;;;5037500;28;20120;-58
2023/02/26 10:38:15;;;;;;;4.80;1.00;;;2.70;99.90;;;;;;5037830;28;20033;-60
2023/02/26 10:40:56;;;;;;;3.42;0.93;;;2.60;99.90;;;;;;5035513;28;20033;-59
2023/02/26 10:43:43;;;;;;;1.80;1.02;;;2.60;99.90;;;;;;5038397;28;20538;-61
2023/02/26 10:46:24;;;;;;;1.08;0.63;;;2.60;99.90;;;;;;5039252;28;20021;-58
2023/02/26 10:48:59;;;;;;;0.88;0.85;;;2.70;99.90;;;;;;5038444;28;20028;-62
2023/02/26 10:51:33;;;;;;;3.63;1.05;;;2.80;99.90;;;;;;5053794;28;20459;-59
2023/02/26 10:54:11;;;;;;;2.40;0.60;;;2.90;99.90;;;;;;5039953;28;20025;-59
2023/02/26 10:56:37;;;;;;;2.03;0.85;;;3.00;99.90;;;;;;5038738;28;20036;-58
2023/02/26 10:59:02;;;;;;;1.02;0.60;;;3.20;99.90;;;;;;5039297;28;20487;-59
2023/02/26 11:01:30;;;;;;;2.85;1.38;;;3.20;99.90;;;;;;5037152;28;20377;-56
2023/02/26 11:04:01;;;;;;;1.48;0.93;;;3.10;99.90;;;;;;5038522;28;20046;-59
2023/02/26 11:06:30;;;;;;;2.78;1.10;;;3.10;99.90;;;;;;5039707;28;20021;-60
2023/02/26 11:08:58;;;;;;;2.00;1.08;;;3.10;99.90;;;;;;5038100;28;20499;-58
2023/02/26 11:11:53;;;;;;;3.28;0.82;;;3.10;99.90;;;;;;5036722;28;20025;-59
2023/02/26 11:14:19;;;;;;;2.13;1.25;;;3.10;99.90;;;;;;5037888;28;20036;-57
2023/02/26 11:17:00;;;;;;;1.75;1.20;;;3.10;99.90;;;;;;5040115;28;20416;-56
2023/02/26 11:19:39;;;;;;;2.65;1.35;;;3.00;99.90;;;;;;5039231;28;20040;-59
2023/02/26 11:22:08;;;;;;;5.75;1.73;;;2.90;99.90;;;;;;5038213;28;20036;-58
2023/02/26 11:24:45;;;;;;;4.55;1.17;;;2.90;99.90;;;;;;5038157;28;20526;-59
2023/02/26 11:27:14;;;;;;;2.47;0.80;;;2.90;99.90;;;;;;5038626;28;20115;-58
2023/02/26 11:29:42;;;;;;;2.05;0.80;;;3.00;99.90;;;;;;5038703;28;20499;-58
2023/02/26 11:32:20;;;;;;;1.45;0.60;;;3.00;99.90;;;;;;5039211;28;20029;-60
2023/02/26 11:34:47;;;;;;;2.05;0.93;;;3.00;99.90;;;;;;5038103;28;20029;-60
2023/02/26 11:37:19;;;;;;;1.15;0.98;;;2.90;99.90;;;;;;5038167;28;20030;-58
2023/02/26 11:39:46;;;;;;;3.78;1.63;;;3.00;99.90;;;;;;5037922;28;20272;-58
2023/02/26 11:42:12;;;;;;;1.75;1.05;;;3.00;99.90;;;;;;5039320;28;20034;-60
2023/02/26 11:44:44;;;;;;;3.58;1.25;;;3.10;99.90;;;;;;5038812;28;20021;-60
2023/02/26 11:47:23;;;;;;;2.30;0.93;;;3.20;99.90;;;;;;5037897;28;20464;-60
2023/02/26 11:49:52;;;;;;;1.02;0.98;;;3.30;99.90;;;;;;5038252;28;20024;-58
2023/02/26 11:52:28;;;;;;;1.98;1.08;;;3.40;99.90;;;;;;5038790;28;20391;-59
2023/02/26 11:55:00;;;;;;;3.35;1.08;;;3.40;99.90;;;;;;5038759;28;20021;-57
2023/02/26 11:57:31;;;;;;;1.95;1.17;;;3.30;99.90;;;;;;5039002;28;20021;-53
2023/02/26 11:59:59;;;;;;;3.28;0.98;;;3.20;99.90;;;;;;5036997;28;20108;-55
2023/02/26 12:02:30;;;;;;;4.07;1.20;;;3.20;99.90;;;;;;5038012;28;20075;-59
2023/02/26 12:05:00;;;;;;;4.57;1.23;;;3.20;99.90;;;;;;5037747;28;20017;-58
2023/02/26 12:07:26;;;;;;;4.63;1.20;;;3.30;99.90;;;;;;5038020;28;20049;-56
2023/02/26 12:09:52;;;;;;;3.70;1.05;;;3.40;99.90;;;;;;5037699;28;20120;-58
2023/02/26 12:12:20;;;;;;;3.50;1.08;;;3.60;99.90;;;;;;5038324;28;20116;-54
2023/02/26 12:15:04;;;;;;;2.33;1.30;;;3.70;99.90;;;;;;5052818;28;20029;-53
2023/02/26 12:17:34;;;;;;;1.17;0.80;;;3.70;99.90;;;;;;5038159;28;20025;-55
2023/02/26 12:20:37;;;;;;;1.33;0.75;;;3.80;99.90;;;;;;5036451;28;20025;-54
2023/02/26 12:23:14;;;;;;;4.28;1.00;;;3.80;99.90;;;;;;5038378;28;20433;-59
2023/02/26 12:25:59;;;;;;;3.92;1.55;;;3.70;99.90;;;;;;5037942;28;20039;-54
2023/02/26 12:28:30;;;;;;;1.63;1.15;;;3.80;99.90;;;;;;5037013;28;20025;-54
2023/02/26 12:30:58;;;;;;;2.58;1.33;;;3.90;99.90;;;;;;5039311;28;20108;-58
2023/02/26 12:33:37;;;;;;;3.05;1.25;;;4.00;99.90;;;;;;5039310;28;20399;-58
2023/02/26 12:36:22;;;;;;;1.80;0.88;;;3.90;99.90;;;;;;5036380;28;20099;-56
2023/02/26 12:38:50;;;;;;;2.35;1.27;;;3.80;99.90;;;;;;5037658;28;20033;-60
2023/02/26 12:41:39;;;;;;;7.75;1.30;;;3.70;99.90;;;;;;5039037;28;20068;-51
2023/02/26 12:44:20;;;;;;;4.50;0.77;;;3.60;99.90;;;;;;5037526;28;20100;-53
2023/02/26 12:47:23;;;;;;;2.67;0.80;;;3.50;99.90;;;;;;5037739;28;20025;-55
2023/02/26 12:50:06;;;;;;;2.22;0.75;;;3.50;99.90;;;;;;5033521;28;20060;-55
2023/02/26 12:52:39;;;;;;;2.97;1.05;;;3.50;99.90;;;;;;5040038;28;20087;-58
2023/02/26 12:55:43;;;;;;;1.75;0.85;;;3.60;99.90;;;;;;5041532;28;20124;-57
2023/02/26 12:58:39;;;;;;;2.38;1.10;;;3.70;99.90;;;;;;5042464;28;20111;-56
2023/02/26 13:01:22;;;;;;;2.97;0.93;;;3.80;99.90;;;;;;5040776;28;20037;-55
2023/02/26 13:03:50;;;;;;;2.47;1.05;;;3.80;99.90;;;;;;5042012;28;20266;-56
2023/02/26 13:06:34;;;;;;;1.15;1.08;;;3.80;99.90;;;;;;5041016;28;20025;-52
2023/02/26 13:09:24;;;;;;;1.20;0.50;;;3.80;99.90;;;;;;5040812;28;20392;-52
2023/02/26 13:12:24;;;;;;;3.05;1.23;;;3.80;99.90;;;;;;5042071;28;20446;-55
2023/02/26 13:14:56;;;;;;;5.72;1.33;;;3.90;99.90;;;;;;5020889;28;20078;-58